Time;durP1;ratioP1;P1;durP2;ratioP2;P2;SDS_P1;SDS_P2;PMS_P1;PMS_P2;Temp;Humidity;BMP_temperature;BMP_pressure;BME280_temperature;BME280_humidity;BME280_pressure;Samples;Min_cycle;Max_cycle;Signal;HPM_P1;HPM_P2
2023/06/01 00:00:23;;;;;;;;;12.00;9.00;;;;;23.30;38.66;101376.16;4957304;28;45226;-42
2023/06/01 00:02:49;;;;;;;;;6.75;6.75;;;;;23.30;38.23;101381.44;4957629;28;45381;-42
2023/06/01 00:05:15;;;;;;;;;12.00;9.00;;;;;23.30;38.27;101379.63;4956955;28;46265;-43
2023/06/01 00:07:40;;;;;;;;;9.25;8.75;;;;;23.30;38.46;101378.78;4941935;28;46237;-44
2023/06/01 00:10:06;;;;;;;;;8.25;8.25;;;;;23.29;38.62;101375.28;4937792;28;45848;-44
2023/06/01 00:12:31;;;;;;;;;10.00;8.25;;;;;23.30;38.48;101373.50;4938175;28;45437;-44
2023/06/01 00:14:57;;;;;;;;;10.50;9.75;;;;;23.29;38.56;101369.16;4937846;28;46139;-41
2023/06/01 00:17:23;;;;;;;;;11.50;7.50;;;;;23.29;38.87;101370.00;4948332;28;45238;-42
2023/06/01 00:19:48;;;;;;;;;10.75;10.00;;;;;23.28;39.00;101367.44;4957015;28;45361;-43
2023/06/01 00:22:15;;;;;;;;;11.75;10.00;;;;;23.28;38.87;101365.63;4956738;28;45488;-44
2023/06/01 00:24:40;;;;;;;;;8.00;8.00;;;;;23.27;38.90;101357.81;4956811;28;47122;-40
2023/06/01 00:27:07;;;;;;;;;9.00;8.00;;;;;23.28;39.01;101364.81;4949984;28;45308;-44
2023/06/01 00:29:32;;;;;;;;;11.50;8.50;;;;;23.26;39.01;101364.03;4957056;28;45337;-39
2023/06/01 00:31:58;;;;;;;;;11.00;8.00;;;;;23.25;38.74;101362.34;4940169;28;45484;-42
2023/06/01 00:34:23;;;;;;;;;9.25;8.25;;;;;23.25;38.94;101367.63;4956471;28;45324;-46
2023/06/01 00:36:49;;;;;;;;;9.00;7.00;;;;;23.25;39.04;101359.69;4947729;28;45421;-46
2023/06/01 00:39:14;;;;;;;;;10.00;6.50;;;;;23.24;39.19;101361.50;4956476;28;45382;-44
2023/06/01 00:41:40;;;;;;;;;8.75;8.00;;;;;23.25;39.30;101357.03;4957031;28;45575;-43
2023/06/01 00:44:05;;;;;;;;;10.25;7.00;;;;;23.23;39.62;101353.63;4956631;28;46126;-44
2023/06/01 00:46:30;;;;;;;;;9.00;8.25;;;;;23.23;39.24;101361.56;4949945;28;45329;-44
2023/06/01 00:48:57;;;;;;;;;9.25;8.75;;;;;23.23;39.22;101364.22;4937422;28;45424;-45
2023/06/01 00:51:23;;;;;;;;;11.00;9.75;;;;;23.22;39.66;101362.50;4937572;28;45277;-42
2023/06/01 00:53:49;;;;;;;;;9.50;9.00;;;;;23.22;39.66;101358.09;4937313;28;46362;-46
2023/06/01 00:56:14;;;;;;;;;8.00;8.00;;;;;23.23;39.61;101358.91;4939961;28;45545;-43
2023/06/01 00:58:41;;;;;;;;;11.00;8.00;;;;;23.22;39.38;101358.09;4956184;28;45358;-43
2023/06/01 01:01:07;;;;;;;;;8.75;8.75;;;;;23.23;39.98;101364.22;4956922;28;45187;-46
2023/06/01 01:03:34;;;;;;;;;11.00;9.50;;;;;23.22;39.41;101367.78;4956613;28;45438;-42
2023/06/01 01:06:22;;;;;;;;;9.75;9.25;;;;;23.21;39.77;101366.09;4954072;28;45800;-43
2023/06/01 01:08:59;;;;;;;;;10.25;9.50;;;;;23.20;40.09;101364.41;4937188;28;45294;-42
2023/06/01 01:11:30;;;;;;;;;9.00;7.00;;;;;23.20;39.95;101370.53;4940651;28;45576;-41
2023/06/01 01:14:07;;;;;;;;;9.75;7.25;;;;;23.20;40.10;101364.41;4936959;28;45402;-45
2023/06/01 01:16:46;;;;;;;;;8.25;8.25;;;;;23.19;39.58;101367.97;4937568;28;45551;-41
2023/06/01 01:19:47;;;;;;;;;11.75;9.00;;;;;23.17;39.95;101365.38;4919966;28;45478;-44
2023/06/01 01:22:26;;;;;;;;;11.00;9.25;;;;;23.19;40.03;101368.81;4937251;28;45187;-45
2023/06/01 01:25:12;;;;;;;;;8.00;8.00;;;;;23.20;39.95;101364.41;4936687;28;45536;-44
2023/06/01 01:27:53;;;;;;;;;9.00;7.50;;;;;23.20;40.16;101375.00;4951712;28;45455;-46
2023/06/01 01:30:22;;;;;;;;;9.00;9.00;;;;;23.21;39.82;101371.38;4956322;28;45336;-42
2023/06/01 01:32:50;;;;;;;;;8.25;8.00;;;;;23.20;40.13;101375.81;4954576;28;45493;-43
2023/06/01 01:35:16;;;;;;;;;9.25;9.25;;;;;23.20;40.03;101372.34;4955960;28;46133;-42
2023/06/01 01:37:52;;;;;;;;;10.00;8.25;;;;;23.20;40.39;101375.81;4940295;28;45346;-43
2023/06/01 01:40:18;;;;;;;;;8.75;8.00;;;;;23.20;40.39;101377.63;4919508;28;45270;-44
2023/06/01 01:42:43;;;;;;;;;8.50;8.50;;;;;23.19;40.49;101378.53;4937051;28;45247;-43
2023/06/01 01:45:12;;;;;;;;;9.50;7.50;;;;;23.19;40.09;101363.53;4936498;28;47914;-42
2023/06/01 01:47:46;;;;;;;;;8.75;8.25;;;;;23.20;40.57;101370.53;4956156;28;45428;-41
2023/06/01 01:50:13;;;;;;;;;8.00;8.00;;;;;23.20;40.27;101375.81;4942140;28;45525;-44
2023/06/01 01:52:42;;;;;;;;;10.25;8.00;;;;;23.20;40.18;101365.25;4959515;28;45570;-45
2023/06/01 01:55:09;;;;;;;;;8.50;7.25;;;;;23.22;40.32;101370.44;4943700;28;45312;-45
2023/06/01 01:57:35;;;;;;;;;10.00;7.75;;;;;23.20;40.74;101370.53;4940085;28;45858;-42
2023/06/01 02:00:02;;;;;;;;;8.50;8.50;;;;;23.22;40.67;101362.50;4938662;28;45290;-41
2023/06/01 02:02:28;;;;;;;;;10.50;10.50;;;;;23.21;40.54;101371.38;4939976;28;45542;-43
2023/06/01 02:04:53;;;;;;;;;12.25;8.75;;;;;23.21;40.80;101368.72;4951280;28;46407;-41
2023/06/01 02:07:18;;;;;;;;;8.50;8.50;;;;;23.20;40.59;101370.53;4958770;28;45456;-44
2023/06/01 02:09:44;;;;;;;;;9.50;6.75;;;;;23.19;40.67;101368.81;4959141;28;45390;-43
2023/06/01 02:12:10;;;;;;;;;10.50;10.00;;;;;23.19;40.86;101363.53;4958969;28;45421;-43
2023/06/01 02:14:35;;;;;;;;;8.25;8.25;;;;;23.19;40.88;101360.03;4949017;28;46012;-44
2023/06/01 02:17:01;;;;;;;;;11.75;10.25;;;;;23.20;40.59;101353.84;4939480;28;45425;-44
2023/06/01 02:19:27;;;;;;;;;11.50;10.00;;;;;23.19;41.26;101360.03;4939640;28;45393;-44
2023/06/01 02:21:52;;;;;;;;;9.25;8.75;;;;;23.16;41.06;101348.69;4939922;28;45324;-44
2023/06/01 02:24:18;;;;;;;;;10.25;10.00;;;;;23.16;40.80;101355.75;4945978;28;45281;-46
2023/06/01 02:26:45;;;;;;;;;10.00;10.00;;;;;23.16;41.02;101350.47;4958709;28;45442;-43
2023/06/01 02:29:12;;;;;;;;;10.50;9.25;;;;;23.16;41.05;101343.41;4958992;28;45286;-44
2023/06/01 02:31:37;;;;;;;;;9.25;9.25;;;;;23.16;40.91;101350.47;4959400;28;45569;-44
2023/06/01 02:34:03;;;;;;;;;8.75;8.75;;;;;23.16;40.86;101353.09;4953492;28;46808;-45
2023/06/01 02:36:28;;;;;;;;;12.50;10.50;;;;;23.15;41.33;101351.44;4939302;28;45374;-44
2023/06/01 02:38:56;;;;;;;;;10.75;10.00;;;;;23.16;41.43;101353.09;4939221;28;45456;-43
2023/06/01 02:41:22;;;;;;;;;11.25;9.00;;;;;23.15;41.31;101360.19;4939298;28;45589;-44
2023/06/01 02:43:47;;;;;;;;;9.50;8.50;;;;;23.15;41.05;101365.50;4941119;28;46340;-44
2023/06/01 02:46:13;;;;;;;;;11.50;9.50;;;;;23.15;41.32;101359.38;4958419;28;45402;-44
2023/06/01 02:48:38;;;;;;;;;10.25;9.25;;;;;23.15;41.52;101354.91;4958735;28;45636;-43
2023/06/01 02:51:03;;;;;;;;;13.25;9.50;;;;;23.14;41.42;101355.00;4958796;28;45186;-44
2023/06/01 02:53:29;;;;;;;;;8.75;8.25;;;;;23.13;41.39;101351.50;4953275;28;45307;-42
2023/06/01 02:55:54;;;;;;;;;10.00;9.00;;;;;23.15;41.73;101352.28;4921426;28;45314;-44
2023/06/01 02:58:20;;;;;;;;;10.75;10.75;;;;;23.14;41.37;101353.19;4937764;28;51285;-45
2023/06/01 03:00:46;;;;;;;;;11.00;8.00;;;;;23.14;41.99;101355.00;4939032;28;45311;-42
2023/06/01 03:03:12;;;;;;;;;14.75;10.00;;;;;23.14;41.49;101355.00;4939698;28;46105;-46
2023/06/01 03:05:38;;;;;;;;;12.00;9.25;;;;;23.12;41.52;101347.16;4958517;28;45262;-45
2023/06/01 03:08:05;;;;;;;;;14.50;10.50;;;;;23.12;41.59;101349.78;4958394;28;45381;-47
2023/06/01 03:10:31;;;;;;;;;11.00;11.00;;;;;23.13;41.98;101348.84;4958293;28;45572;-46
2023/06/01 03:12:56;;;;;;;;;8.00;8.00;;;;;23.12;41.62;101348.94;4958001;28;46052;-44
2023/06/01 03:15:22;;;;;;;;;11.00;10.50;;;;;23.12;41.99;101351.59;4941288;28;46919;-42
2023/06/01 03:17:47;;;;;;;;;10.00;8.00;;;;;23.10;41.80;101350.84;4958045;28;45353;-42
2023/06/01 03:20:15;;;;;;;;;12.00;9.50;;;;;23.10;41.36;101349.03;4958021;28;45572;-42
2023/06/01 03:22:42;;;;;;;;;10.25;10.25;;;;;23.11;41.56;101347.25;4923631;28;45345;-41
2023/06/01 03:25:08;;;;;;;;;10.50;9.50;;;;;23.10;41.86;101354.31;4953950;28;45395;-44
2023/06/01 03:27:33;;;;;;;;;11.50;9.00;;;;;23.10;41.86;101351.66;4957715;28;45366;-44
2023/06/01 03:29:58;;;;;;;;;14.00;11.00;;;;;23.12;42.05;101362.19;4958194;28;45309;-46
2023/06/01 03:32:24;;;;;;;;;10.50;8.75;;;;;23.10;41.86;101358.75;4957573;28;49938;-42
2023/06/01 03:34:49;;;;;;;;;11.75;10.75;;;;;23.09;41.96;101357.06;4944305;28;45416;-44
2023/06/01 03:37:14;;;;;;;;;11.00;9.67;;;;;23.09;41.70;101355.28;4937970;28;59482;-44
2023/06/01 03:39:40;;;;;;;;;11.00;9.50;;;;;23.08;42.15;101356.22;4938763;28;45414;-45
2023/06/01 03:42:07;;;;;;;;;11.50;10.25;;;;;23.08;42.25;101350.94;4938157;28;46915;-44
2023/06/01 03:44:32;;;;;;;;;9.00;8.75;;;;;23.07;42.01;101354.50;4947554;28;45752;-44
2023/06/01 03:46:57;;;;;;;;;11.00;11.00;;;;;23.06;42.28;101355.44;4940316;28;45384;-42
2023/06/01 03:49:23;;;;;;;;;10.75;10.50;;;;;23.07;41.99;101359.81;4957609;28;45222;-44
2023/06/01 03:51:48;;;;;;;;;14.25;10.50;;;;;23.05;42.17;101364.31;4957523;28;46278;-44
2023/06/01 03:54:14;;;;;;;;;14.00;11.00;;;;;23.04;42.25;101359.97;4939123;28;45493;-43
2023/06/01 03:56:40;;;;;;;;;12.75;9.25;;;;;23.04;42.21;101364.41;4957349;28;45354;-44
2023/06/01 03:59:10;;;;;;;;;12.25;10.25;;;;;23.03;42.32;101363.56;4957824;28;45340;-44
2023/06/01 04:01:39;;;;;;;;;8.75;8.00;;;;;23.03;42.55;101362.72;4957155;28;48107;-44
2023/06/01 04:04:05;;;;;;;;;12.25;11.50;;;;;23.03;42.35;101362.72;4951193;28;45770;-43
2023/06/01 04:06:35;;;;;;;;;11.00;10.00;;;;;23.04;42.02;101365.25;4937972;28;45168;-43
2023/06/01 04:09:06;;;;;;;;;10.50;8.25;;;;;23.03;42.12;101360.91;4938044;28;45477;-43
2023/06/01 04:11:32;;;;;;;;;12.75;11.25;;;;;23.05;42.34;101366.97;4950513;28;46553;-41
2023/06/01 04:13:57;;;;;;;;;9.00;8.50;;;;;23.05;42.20;101361.69;4957038;28;45413;-43
2023/06/01 04:16:22;;;;;;;;;10.75;10.25;;;;;23.06;42.66;101373.09;4936492;28;45359;-45
2023/06/01 04:18:48;;;;;;;;;12.00;10.25;;;;;23.06;42.40;101366.03;4956171;28;46439;-43
2023/06/01 04:21:13;;;;;;;;;10.25;9.75;;;;;23.07;42.60;101369.50;4952667;28;45999;-41
2023/06/01 04:23:38;;;;;;;;;12.50;11.50;;;;;23.07;42.22;101367.72;4956949;28;45329;-45
2023/06/01 04:26:04;;;;;;;;;14.50;11.75;;;;;23.08;42.53;101371.22;4957289;28;45362;-49
2023/06/01 04:28:32;;;;;;;;;12.75;10.50;;;;;23.08;42.39;101374.72;4955154;28;45594;-47
2023/06/01 04:30:58;;;;;;;;;11.25;10.25;;;;;23.09;42.15;101376.44;4955016;28;46396;-40
2023/06/01 04:33:24;;;;;;;;;11.25;11.00;;;;;23.09;42.18;101381.72;4955240;28;45180;-42
2023/06/01 04:35:52;;;;;;;;;10.25;9.00;;;;;23.08;42.23;101382.66;4948176;28;45627;-42
2023/06/01 04:38:18;;;;;;;;;11.50;10.50;;;;;23.09;42.34;101381.72;4951797;28;45380;-45
2023/06/01 04:40:46;;;;;;;;;12.50;12.50;;;;;23.10;42.64;101385.19;4956854;28;45470;-42
2023/06/01 04:43:13;;;;;;;;;12.50;11.25;;;;;23.09;42.96;101375.56;4957108;28;45235;-45
2023/06/01 04:45:38;;;;;;;;;14.00;12.50;;;;;23.08;43.11;101387.94;4956776;28;45454;-43
2023/06/01 04:48:08;;;;;;;;;13.50;12.50;;;;;23.08;43.55;101385.31;4957276;28;45684;-42
2023/06/01 04:50:34;;;;;;;;;11.00;11.00;;;;;23.06;44.08;101384.53;4956486;28;45353;-42
2023/06/01 04:53:00;;;;;;;;;13.50;11.25;;;;;23.06;43.72;101384.53;4956424;28;45479;-42
2023/06/01 04:55:26;;;;;;;;;17.25;11.75;;;;;23.06;44.00;101395.09;4956618;28;45450;-40
2023/06/01 04:57:51;;;;;;;;;14.25;9.50;;;;;23.07;44.20;101386.25;4939360;28;45486;-47
2023/06/01 05:00:17;;;;;;;;;15.00;11.00;;;;;23.10;44.13;101401.91;4956392;28;46278;-44
2023/06/01 05:02:44;;;;;;;;;13.00;10.00;;;;;23.09;44.05;101389.66;4956959;28;45318;-46
2023/06/01 05:05:10;;;;;;;;;12.75;10.75;;;;;23.10;44.07;101398.41;4956647;28;45254;-47
2023/06/01 05:07:37;;;;;;;;;13.75;11.50;;;;;23.09;44.32;101394.94;4956940;28;45528;-47
2023/06/01 05:10:05;;;;;;;;;11.25;10.25;;;;;23.11;43.94;101392.19;4956322;28;46287;-45
2023/06/01 05:12:31;;;;;;;;;12.00;10.50;;;;;23.10;44.12;101387.84;4954990;28;45329;-45
2023/06/01 05:14:57;;;;;;;;;13.75;11.75;;;;;23.09;44.24;101387.00;4950450;28;45527;-45
2023/06/01 05:17:22;;;;;;;;;12.50;10.25;;;;;23.10;44.41;101390.50;4935870;28;53621;-44
2023/06/01 05:19:47;;;;;;;;;9.75;9.00;;;;;23.09;43.92;101394.06;4936829;28;45396;-40
2023/06/01 05:22:13;;;;;;;;;14.75;12.00;;;;;23.10;44.07;101393.13;4939003;28;45312;-42
2023/06/01 05:24:38;;;;;;;;;12.25;9.25;;;;;23.09;43.70;101400.22;4940459;28;45433;-42
2023/06/01 05:27:04;;;;;;;;;14.50;12.00;;;;;23.09;44.30;101394.94;4940469;28;45529;-43
2023/06/01 05:29:30;;;;;;;;;11.00;10.50;;;;;23.09;43.97;101408.16;4940198;28;46653;-43
2023/06/01 05:31:55;;;;;;;;;10.25;7.00;;;;;23.08;43.85;101406.47;4940260;28;45257;-44
2023/06/01 05:34:20;;;;;;;;;15.25;10.00;;;;;23.08;43.87;101409.09;4940273;28;45239;-42
2023/06/01 05:36:46;;;;;;;;;13.50;12.00;;;;;23.09;44.00;101402.88;4940690;28;45540;-44
2023/06/01 05:39:11;;;;;;;;;11.25;11.00;;;;;23.09;43.70;101407.28;4939942;28;45619;-43
2023/06/01 05:41:37;;;;;;;;;15.75;12.75;;;;;23.08;43.66;101403.81;4940098;28;45397;-44
2023/06/01 05:44:02;;;;;;;;;11.00;9.67;;;;;23.08;43.69;101408.22;4939241;28;59015;-41
2023/06/01 05:46:27;;;;;;;;;13.00;9.75;;;;;23.07;43.66;101406.53;4940021;28;45283;-39
2023/06/01 05:48:55;;;;;;;;;10.50;10.00;;;;;23.07;43.79;101407.38;4939895;28;45268;-42
2023/06/01 05:51:20;;;;;;;;;17.25;12.25;;;;;23.06;44.18;101416.25;4939884;28;45409;-42
2023/06/01 05:53:45;;;;;;;;;13.00;12.25;;;;;23.06;43.73;101415.38;4940292;28;45334;-44
2023/06/01 05:56:10;;;;;;;;;12.00;10.75;;;;;23.06;44.12;101421.53;4940002;28;45604;-42
2023/06/01 05:58:36;;;;;;;;;17.00;11.00;;;;;23.05;43.74;101411.03;4939713;28;45984;-41
2023/06/01 06:01:01;;;;;;;;;12.00;10.00;;;;;23.07;43.79;101410.03;4939536;28;45469;-39
2023/06/01 06:03:27;;;;;;;;;15.75;13.50;;;;;23.06;44.08;101413.63;4939614;28;45266;-40
2023/06/01 06:05:53;;;;;;;;;14.00;11.25;;;;;23.06;43.88;101416.25;4939768;28;45627;-41
2023/06/01 06:08:18;;;;;;;;;12.50;12.00;;;;;23.06;43.63;101405.69;4939905;28;46501;-41
2023/06/01 06:10:43;;;;;;;;;19.75;15.75;;;;;23.07;43.89;101417.09;4939563;28;45294;-42
2023/06/01 06:13:09;;;;;;;;;13.75;10.00;;;;;23.06;43.60;101415.38;4939510;28;45331;-42
2023/06/01 06:15:35;;;;;;;;;13.50;10.25;;;;;23.07;43.60;101411.81;4939909;28;45514;-39
2023/06/01 06:18:00;;;;;;;;;14.75;13.25;;;;;23.07;43.38;101411.81;4939223;28;46065;-43
2023/06/01 06:20:26;;;;;;;;;16.00;12.25;;;;;23.08;43.34;101413.50;4939203;28;50273;-42
2023/06/01 06:22:52;;;;;;;;;16.00;12.00;;;;;23.08;43.85;101410.88;4939535;28;45302;-40
2023/06/01 06:25:18;;;;;;;;;14.50;13.00;;;;;23.08;43.84;101414.38;4939755;28;45421;-44
2023/06/01 06:27:44;;;;;;;;;15.00;12.50;;;;;23.09;43.24;101407.28;4937899;28;48763;-40
2023/06/01 06:30:10;;;;;;;;;13.25;12.25;;;;;23.11;43.75;101413.34;4939191;28;45970;-44
2023/06/01 06:32:35;;;;;;;;;14.25;11.25;;;;;23.10;43.58;101409.84;4922109;28;45335;-42
2023/06/01 06:35:01;;;;;;;;;14.00;13.25;;;;;23.11;43.76;101414.19;4939389;28;45536;-42
2023/06/01 06:37:28;;;;;;;;;14.50;10.25;;;;;23.11;43.57;101411.53;4939219;28;45459;-42
2023/06/01 06:39:53;;;;;;;;;9.75;9.75;;;;;23.11;43.64;101408.91;4939169;28;45933;-42
2023/06/01 06:42:19;;;;;;;;;15.00;13.67;;;;;23.12;43.15;101410.59;4938819;28;62596;-45
2023/06/01 06:44:44;;;;;;;;;12.75;11.25;;;;;23.13;43.13;101414.13;4938065;28;45617;-44
2023/06/01 06:47:10;;;;;;;;;14.25;12.75;;;;;23.13;43.00;101406.19;4937563;28;47062;-44
2023/06/01 06:49:35;;;;;;;;;14.50;12.50;;;;;23.13;43.33;101412.31;4938979;28;45319;-42
2023/06/01 06:52:01;;;;;;;;;14.25;12.00;;;;;23.12;43.09;101405.31;4939160;28;45384;-45
2023/06/01 06:54:26;;;;;;;;;19.25;13.00;;;;;23.13;43.14;101407.03;4939388;28;45286;-45
2023/06/01 06:56:52;;;;;;;;;15.25;11.00;;;;;23.12;43.58;101396.53;4939186;28;45731;-43
2023/06/01 06:59:17;;;;;;;;;11.75;10.25;;;;;23.13;43.41;101401.72;4939041;28;45378;-43
2023/06/01 07:01:43;;;;;;;;;14.25;12.25;;;;;23.15;43.48;101406.97;4939022;28;46069;-45
2023/06/01 07:04:08;;;;;;;;;17.00;14.00;;;;;23.15;43.23;101405.16;4939022;28;45616;-42
2023/06/01 07:06:34;;;;;;;;;16.00;14.75;;;;;23.16;43.46;101411.28;4938766;28;46079;-42
2023/06/01 07:08:59;;;;;;;;;15.75;12.75;;;;;23.17;43.14;101413.84;4938801;28;45330;-42
2023/06/01 07:11:26;;;;;;;;;14.00;12.50;;;;;23.17;43.46;101413.84;4938852;28;45447;-44
2023/06/01 07:13:57;;;;;;;;;18.50;13.75;;;;;23.17;43.31;101405.03;4939107;28;45301;-41
2023/06/01 07:16:22;;;;;;;;;13.75;12.00;;;;;23.17;43.15;101405.91;4938786;28;46998;-42
2023/06/01 07:18:47;;;;;;;;;13.75;12.00;;;;;23.19;43.02;101410.28;4938609;28;45416;-41
2023/06/01 07:21:13;;;;;;;;;15.25;13.50;;;;;23.19;43.31;101415.56;4938485;28;45343;-43
2023/06/01 07:23:42;;;;;;;;;14.50;12.25;;;;;23.18;43.25;101401.47;4938702;28;45353;-45
2023/06/01 07:26:07;;;;;;;;;20.00;17.00;;;;;23.20;43.31;101412.00;4937922;28;45258;-45
2023/06/01 07:28:33;;;;;;;;;16.75;13.00;;;;;23.22;43.15;101415.41;4938400;28;45385;-42
2023/06/01 07:30:58;;;;;;;;;14.75;10.75;;;;;23.23;43.47;101419.75;4938382;28;45389;-45
2023/06/01 07:33:25;;;;;;;;;13.00;11.75;;;;;23.21;43.23;101421.63;4939020;28;45526;-42
2023/06/01 07:35:52;;;;;;;;;17.25;14.75;;;;;23.22;43.25;101420.69;4938694;28;45283;-41
2023/06/01 07:38:19;;;;;;;;;18.50;15.00;;;;;23.21;43.38;101413.69;4938366;28;45347;-42
2023/06/01 07:40:45;;;;;;;;;15.75;14.00;;;;;23.20;43.05;101418.13;4938508;28;45440;-44
2023/06/01 07:43:10;;;;;;;;;19.25;14.50;;;;;23.22;43.23;101428.63;4938574;28;45429;-44
2023/06/01 07:45:35;;;;;;;;;15.75;13.25;;;;;23.23;43.17;101425.91;4937293;28;56840;-42
2023/06/01 07:48:01;;;;;;;;;14.25;13.00;;;;;23.23;42.96;101432.97;4938342;28;45459;-45
2023/06/01 07:50:30;;;;;;;;;16.75;11.50;;;;;23.22;43.17;101429.47;4938321;28;45335;-42
2023/06/01 07:52:57;;;;;;;;;14.75;13.50;;;;;23.24;42.67;101434.66;4921978;28;45643;-44
2023/06/01 07:55:22;;;;;;;;;16.50;14.25;;;;;23.23;42.98;101433.84;4938386;28;46236;-45
2023/06/01 07:57:47;;;;;;;;;10.25;8.00;;;;;23.24;42.79;101437.31;4937716;28;52856;-42
2023/06/01 08:00:13;;;;;;;;;14.75;11.75;;;;;23.25;43.01;101439.03;4937984;28;45436;-43
2023/06/01 08:02:39;;;;;;;;;16.50;13.25;;;;;23.25;43.23;101447.81;4938360;28;45598;-47
2023/06/01 08:05:06;;;;;;;;;14.00;14.00;;;;;23.25;43.02;101444.31;4937764;28;46225;-46
2023/06/01 08:07:32;;;;;;;;;22.75;17.00;;;;;23.25;42.83;101447.81;4937975;28;45413;-47
2023/06/01 08:09:58;;;;;;;;;18.00;16.00;;;;;23.25;43.34;101437.25;4938276;28;45251;-39
2023/06/01 08:12:26;;;;;;;;;15.00;13.00;;;;;23.27;42.77;101440.63;4937195;28;45292;-46
2023/06/01 08:14:51;;;;;;;;;16.75;12.75;;;;;23.28;42.56;101433.56;4937715;28;46086;-44
2023/06/01 08:17:18;;;;;;;;;14.25;13.00;;;;;23.29;42.69;101435.28;4937839;28;45300;-43
2023/06/01 08:19:44;;;;;;;;;16.25;14.75;;;;;23.28;43.40;101434.41;4938067;28;45278;-44
2023/06/01 08:22:11;;;;;;;;;15.00;13.25;;;;;23.28;43.21;101433.56;4938255;28;45267;-44
2023/06/01 08:24:37;;;;;;;;;13.00;12.75;;;;;23.29;43.06;101436.09;4937662;28;47470;-45
2023/06/01 08:27:14;;;;;;;;;15.00;15.00;;;;;23.29;43.15;101443.22;4937907;28;45400;-46
2023/06/01 08:29:40;;;;;;;;;15.25;12.25;;;;;23.29;43.32;101437.91;4937967;28;45209;-44
2023/06/01 08:32:05;;;;;;;;;16.50;12.25;;;;;23.29;43.24;101438.75;4938168;28;45646;-45
2023/06/01 08:34:30;;;;;;;;;14.25;12.00;;;;;23.31;42.79;101438.69;4937510;28;46533;-45
